createdAt,value
2022-11-05T00:00:20.134Z,40.25
2022-11-05T00:03:05.661Z,43.65
2022-11-05T00:05:51.157Z,46.88
2022-11-05T00:08:36.621Z,46.33
2022-11-05T00:11:03.417Z,50.22
2022-11-05T00:13:48.621Z,48.47
2022-11-05T00:16:41.478Z,49.15
2022-11-05T00:19:08.967Z,49.65
2022-11-05T00:21:57.138Z,54.53
2022-11-05T00:24:43.491Z,51.03
2022-11-05T00:27:10.670Z,54.75
2022-11-05T00:29:37.652Z,51.17
2022-11-05T00:32:04.648Z,51.13
2022-11-05T00:34:31.925Z,44.78
2022-11-05T00:36:58.610Z,48.25
2022-11-05T00:39:25.325Z,45.30
2022-11-05T00:42:12.012Z,47.92
2022-11-05T00:44:57.358Z,50.97
2022-11-05T00:47:42.741Z,48.17
2022-11-05T00:50:11.007Z,42.65
2022-11-05T00:52:56.837Z,49.78
2022-11-05T00:55:25.093Z,44.05
2022-11-05T00:57:51.813Z,47.22
2022-11-05T01:00:18.668Z,47.03
2022-11-05T01:02:45.772Z,49.15
2022-11-05T01:05:13.559Z,43.38
2022-11-05T01:07:40.347Z,46.55
2022-11-05T01:10:07.414Z,46.13
2022-11-05T01:12:34.823Z,44.05
2022-11-05T01:15:01.876Z,47.95
2022-11-05T01:17:28.615Z,50.35
2022-11-05T01:19:55.444Z,44.45
2022-11-05T01:22:22.489Z,43.88
2022-11-05T01:24:49.177Z,44.72
2022-11-05T01:27:16.080Z,42.55
2022-11-05T01:29:42.944Z,49.15
2022-11-05T01:32:09.718Z,39.10
2022-11-05T01:34:36.517Z,43.50
2022-11-05T01:37:03.249Z,41.60
2022-11-05T01:39:29.922Z,47.15
2022-11-05T01:41:56.833Z,48.90
2022-11-05T01:44:59.380Z,42.65
2022-11-05T01:47:38.654Z,49.10
2022-11-05T01:50:30.498Z,48.03
2022-11-05T01:53:03.871Z,44.13
2022-11-05T01:55:36.866Z,47.85
2022-11-05T01:58:07.582Z,46.28
2022-11-05T02:00:35.540Z,51.15
2022-11-05T02:03:02.577Z,49.60
2022-11-05T02:05:29.580Z,45.90
2022-11-05T02:07:56.566Z,45.17
2022-11-05T02:10:24.238Z,50.67
2022-11-05T02:12:51.111Z,46.42
2022-11-05T02:15:27.442Z,43.55
2022-11-05T02:18:19.204Z,46.95
2022-11-05T02:21:07.215Z,44.33
2022-11-05T02:23:51.897Z,44.10
2022-11-05T02:26:33.793Z,42.33
2022-11-05T02:29:19.063Z,43.00
2022-11-05T02:31:54.946Z,44.28
2022-11-05T02:34:31.462Z,45.40
2022-11-05T02:37:23.867Z,43.20
2022-11-05T02:39:59.133Z,46.80
2022-11-05T02:42:57.159Z,47.85
2022-11-05T02:45:58.851Z,41.97
2022-11-05T02:48:59.181Z,43.15
2022-11-05T02:51:35.011Z,43.35
2022-11-05T02:54:16.265Z,42.10
2022-11-05T02:56:47.216Z,47.17
2022-11-05T02:59:14.233Z,43.17
2022-11-05T03:01:42.511Z,43.30
2022-11-05T03:04:12.266Z,47.35
2022-11-05T03:07:00.510Z,42.97
2022-11-05T03:09:50.652Z,41.80
2022-11-05T03:12:29.653Z,42.78
2022-11-05T03:15:17.700Z,44.28
2022-11-05T03:17:59.906Z,44.53
2022-11-05T03:20:40.663Z,43.40
2022-11-05T03:23:19.785Z,44.55
2022-11-05T03:25:54.746Z,42.10
2022-11-05T03:28:25.645Z,42.45
2022-11-05T03:30:56.862Z,48.63
2022-11-05T03:33:27.736Z,43.50
2022-11-05T03:35:57.343Z,43.47
2022-11-05T03:38:37.334Z,46.50
2022-11-05T03:41:08.614Z,46.75
2022-11-05T03:43:39.938Z,41.30
2022-11-05T03:46:11.460Z,45.90
2022-11-05T03:48:46.530Z,45.25
2022-11-05T03:51:30.407Z,43.80
2022-11-05T03:53:59.743Z,49.67
2022-11-05T03:56:34.353Z,40.22
2022-11-05T03:59:02.787Z,43.72
2022-11-05T04:01:30.584Z,42.88
2022-11-05T04:03:57.689Z,43.55
2022-11-05T04:06:42.973Z,42.88
2022-11-05T04:09:29.129Z,46.63
2022-11-05T04:12:14.619Z,42.63
2022-11-05T04:14:41.386Z,40.30
2022-11-05T04:17:09.708Z,40.63
2022-11-05T04:20:01.414Z,43.40
2022-11-05T04:22:49.017Z,45.70
2022-11-05T04:25:17.707Z,41.22
2022-11-05T04:27:45.205Z,40.92
2022-11-05T04:30:20.140Z,36.40
2022-11-05T04:33:25.339Z,41.55
2022-11-05T04:35:52.031Z,48.15
2022-11-05T04:38:19.975Z,48.08
2022-11-05T04:40:49.978Z,50.78
2022-11-05T04:43:19.266Z,45.72
2022-11-05T04:45:47.839Z,55.45
2022-11-05T04:48:14.517Z,67.97
2022-11-05T04:50:41.194Z,71.70
2022-11-05T04:53:08.141Z,67.70
2022-11-05T04:55:34.988Z,71.72
2022-11-05T04:58:01.672Z,72.55
2022-11-05T05:00:28.483Z,58.45
2022-11-05T05:02:55.202Z,53.53
2022-11-05T05:05:23.042Z,46.92
2022-11-05T05:07:50.041Z,49.72
2022-11-05T05:10:16.804Z,50.33
2022-11-05T05:12:43.492Z,50.25
2022-11-05T05:15:10.374Z,44.85
2022-11-05T05:17:37.073Z,56.97
2022-11-05T05:20:22.373Z,51.88
2022-11-05T05:22:53.998Z,53.88
2022-11-05T05:25:21.192Z,51.78
2022-11-05T05:27:47.973Z,48.38
2022-11-05T05:30:14.764Z,45.67
2022-11-05T05:32:41.515Z,44.40
2022-11-05T05:35:08.700Z,49.28
2022-11-05T05:37:35.430Z,47.00
2022-11-05T05:40:02.101Z,50.72
2022-11-05T05:42:28.815Z,45.65
2022-11-05T05:44:55.481Z,46.58
2022-11-05T05:47:24.428Z,44.08
2022-11-05T05:49:51.261Z,44.03
2022-11-05T05:52:18.311Z,44.13
2022-11-05T05:54:47.536Z,41.75
2022-11-05T05:57:14.261Z,44.00
2022-11-05T05:59:40.956Z,46.92
2022-11-05T06:02:07.834Z,45.92
2022-11-05T06:04:34.596Z,50.35
2022-11-05T06:07:01.318Z,46.67
2022-11-05T06:09:28.018Z,44.50
2022-11-05T06:11:54.798Z,44.40
2022-11-05T06:14:21.491Z,42.30
2022-11-05T06:16:48.238Z,45.15
2022-11-05T06:19:15.013Z,45.05
2022-11-05T06:21:44.598Z,47.17
2022-11-05T06:24:11.545Z,46.58
2022-11-05T06:26:43.120Z,52.28
2022-11-05T06:29:13.338Z,52.15
2022-11-05T06:34:09.365Z,52.97
2022-11-05T06:36:36.302Z,46.65
2022-11-05T06:39:03.133Z,41.60
2022-11-05T06:41:29.930Z,33.92
2022-11-05T06:43:56.650Z,35.95
2022-11-05T06:46:23.323Z,32.85
2022-11-05T06:48:51.014Z,31.55
2022-11-05T06:51:17.922Z,32.33
2022-11-05T06:53:44.633Z,30.23
2022-11-05T06:56:11.483Z,34.92
2022-11-05T06:58:38.239Z,32.72
2022-11-05T07:01:10.683Z,33.55
2022-11-05T07:03:38.712Z,33.03
2022-11-05T07:06:07.076Z,33.28
2022-11-05T07:08:37.086Z,37.72
2022-11-05T07:11:04.558Z,37.28
2022-11-05T07:13:31.589Z,38.00
2022-11-05T07:15:58.382Z,38.53
2022-11-05T07:18:25.274Z,32.88
2022-11-05T07:20:52.038Z,33.35
2022-11-05T07:23:18.726Z,35.63
2022-11-05T07:25:45.541Z,32.40
2022-11-05T07:28:14.336Z,34.45
2022-11-05T07:30:41.474Z,31.88
2022-11-05T07:33:08.816Z,29.73
2022-11-05T07:35:35.876Z,29.83
2022-11-05T07:38:02.901Z,32.15
2022-11-05T07:40:30.482Z,30.35
2022-11-05T07:42:59.369Z,33.42
2022-11-05T07:45:30.134Z,33.80
2022-11-05T07:48:01.731Z,35.33
2022-11-05T07:50:31.052Z,35.05
2022-11-05T07:53:01.921Z,30.30
2022-11-05T07:55:28.791Z,35.67
2022-11-05T07:57:55.696Z,33.50
2022-11-05T08:00:24.036Z,36.25
2022-11-05T08:02:58.621Z,38.63
2022-11-05T08:05:30.345Z,35.78
2022-11-05T08:07:58.277Z,36.47
2022-11-05T08:10:26.075Z,38.13
2022-11-05T08:12:54.072Z,37.97
2022-11-05T08:15:21.284Z,35.22
2022-11-05T08:17:48.355Z,39.35
2022-11-05T08:20:15.327Z,39.60
2022-11-05T08:22:43.615Z,39.83
2022-11-05T08:25:11.894Z,39.80
2022-11-05T08:27:39.856Z,38.72
2022-11-05T08:30:09.553Z,36.28
2022-11-05T08:32:38.469Z,41.63
2022-11-05T08:35:05.659Z,38.20
2022-11-05T08:37:32.856Z,40.42
2022-11-05T08:39:59.638Z,41.15
2022-11-05T08:42:26.379Z,39.78
2022-11-05T08:44:53.141Z,41.80
2022-11-05T08:47:19.806Z,44.58
2022-11-05T08:49:46.469Z,39.60
2022-11-05T08:52:13.229Z,43.88
2022-11-05T08:54:39.908Z,39.67
2022-11-05T08:57:06.604Z,42.10
2022-11-05T08:59:33.291Z,37.60
2022-11-05T09:02:00.162Z,40.53
2022-11-05T09:04:26.933Z,46.10
2022-11-05T09:06:53.691Z,42.83
2022-11-05T09:09:20.384Z,44.28
2022-11-05T09:12:11.214Z,44.45
2022-11-05T09:14:33.874Z,45.67
2022-11-05T09:17:00.663Z,44.95
2022-11-05T09:19:27.535Z,47.70
2022-11-05T09:21:54.766Z,42.45
2022-11-05T09:24:21.458Z,48.92
2022-11-05T09:26:48.307Z,42.83
2022-11-05T09:29:14.992Z,39.95
2022-11-05T09:31:42.100Z,35.80
2022-11-05T09:34:08.957Z,38.00
2022-11-05T09:36:35.616Z,41.20
2022-11-05T09:39:02.644Z,43.00
2022-11-05T09:41:39.212Z,43.75
2022-11-05T09:44:15.853Z,50.88
2022-11-05T09:46:59.340Z,46.53
2022-11-05T09:49:50.316Z,40.45
2022-11-05T09:52:23.220Z,43.90
2022-11-05T09:54:50.448Z,38.00
2022-11-05T09:57:21.981Z,40.92
2022-11-05T09:59:55.687Z,42.63
2022-11-05T10:02:34.548Z,41.17
2022-11-05T10:05:09.962Z,48.42
2022-11-05T10:07:58.880Z,41.25
2022-11-05T10:10:29.059Z,47.17
2022-11-05T10:13:21.137Z,45.45
2022-11-05T10:16:15.223Z,42.88
2022-11-05T10:18:46.109Z,43.42
2022-11-05T10:21:27.970Z,45.80
2022-11-05T10:24:16.202Z,43.13
2022-11-05T10:26:46.647Z,51.65
2022-11-05T10:31:54.365Z,43.00
2022-11-05T10:34:23.518Z,42.67
2022-11-05T10:36:50.242Z,40.25
2022-11-05T10:39:19.753Z,40.15
2022-11-05T10:42:25.136Z,35.30
2022-11-05T10:45:04.678Z,30.67
2022-11-05T10:47:50.471Z,33.67
2022-11-05T10:50:20.521Z,36.55
2022-11-05T10:53:11.186Z,35.75
2022-11-05T10:55:43.471Z,33.00
2022-11-05T10:58:16.442Z,33.25
2022-11-05T11:01:07.930Z,33.53
2022-11-05T11:03:52.386Z,35.55
2022-11-05T11:06:26.643Z,31.30
2022-11-05T11:08:57.224Z,32.80
2022-11-05T11:11:31.612Z,33.53
2022-11-05T11:13:59.748Z,35.15
2022-11-05T11:16:31.107Z,35.38
2022-11-05T11:19:03.393Z,41.15
2022-11-05T11:21:32.041Z,39.75
2022-11-05T11:24:04.407Z,40.15
2022-11-05T11:26:37.218Z,38.30
2022-11-05T11:29:20.330Z,37.47
2022-11-05T11:31:47.139Z,36.85
2022-11-05T11:34:23.134Z,42.22
2022-11-05T11:36:54.436Z,38.67
2022-11-05T11:39:25.349Z,41.67
2022-11-05T11:41:55.950Z,41.58
2022-11-05T11:44:27.404Z,42.90
2022-11-05T11:46:58.466Z,40.53
2022-11-05T11:49:49.764Z,46.85
2022-11-05T11:52:25.194Z,43.17
2022-11-05T11:54:55.215Z,43.88
2022-11-05T11:57:29.350Z,40.53
2022-11-05T12:00:14.370Z,43.05
2022-11-05T12:03:14.378Z,52.45
2022-11-05T12:06:03.386Z,50.47
2022-11-05T12:08:30.063Z,56.30
2022-11-05T12:11:00.337Z,50.53
2022-11-05T12:13:35.353Z,53.45
2022-11-05T12:16:14.128Z,57.08
2022-11-05T12:19:11.289Z,53.90
2022-11-05T12:21:54.714Z,56.67
2022-11-05T12:24:36.567Z,60.78
2022-11-05T12:27:33.510Z,54.65
2022-11-05T12:30:13.710Z,55.50
2022-11-05T12:33:01.449Z,48.08
2022-11-05T12:35:44.207Z,48.72
2022-11-05T12:38:52.514Z,49.85
2022-11-05T12:41:25.121Z,52.90
2022-11-05T12:44:09.918Z,51.00
2022-11-05T12:47:07.290Z,47.70
2022-11-05T12:49:59.921Z,47.35
2022-11-05T12:52:46.871Z,44.95
2022-11-05T12:55:23.902Z,50.15
2022-11-05T12:57:54.701Z,48.40
2022-11-05T13:00:26.911Z,46.55
2022-11-05T13:03:12.853Z,50.15
2022-11-05T13:05:47.778Z,42.83
2022-11-05T13:08:46.041Z,47.22
2022-11-05T13:11:47.976Z,43.72
2022-11-05T13:14:30.840Z,46.35
2022-11-05T13:17:13.976Z,43.47
2022-11-05T13:20:06.344Z,50.03
2022-11-05T13:22:46.202Z,46.67
2022-11-05T13:25:29.212Z,45.47
2022-11-05T13:28:16.869Z,50.67
2022-11-05T13:30:51.673Z,45.10
2022-11-05T13:33:41.652Z,48.38
2022-11-05T13:36:29.917Z,45.72
2022-11-05T13:39:14.682Z,51.83
2022-11-05T13:42:03.914Z,56.28
2022-11-05T13:44:40.037Z,57.45
2022-11-05T13:47:27.905Z,52.42
2022-11-05T13:50:16.041Z,53.00
2022-11-05T13:52:48.644Z,52.45
2022-11-05T13:55:28.891Z,49.58
2022-11-05T13:58:32.298Z,54.03
2022-11-05T14:01:21.681Z,53.75
2022-11-05T14:03:51.301Z,57.53
2022-11-05T14:06:31.301Z,59.33
2022-11-05T14:09:02.462Z,62.65
2022-11-05T14:11:36.526Z,64.47
2022-11-05T14:14:07.963Z,62.00
2022-11-05T14:16:49.280Z,63.15
2022-11-05T14:19:18.869Z,63.72
2022-11-05T14:21:57.738Z,68.83
2022-11-05T14:24:38.306Z,61.97
2022-11-05T14:27:05.166Z,58.13
2022-11-05T14:29:46.341Z,56.50
2022-11-05T14:32:23.011Z,63.03
2022-11-05T14:35:03.980Z,63.92
2022-11-05T14:37:55.280Z,59.97
2022-11-05T14:40:21.957Z,57.35
2022-11-05T14:42:54.829Z,61.17
2022-11-05T14:45:38.821Z,56.75
2022-11-05T14:48:22.616Z,53.15
2022-11-05T14:50:49.865Z,54.35
2022-11-05T14:53:34.137Z,53.47
2022-11-05T14:56:13.349Z,59.13
2022-11-05T14:58:42.571Z,62.63
2022-11-05T15:01:32.049Z,60.47
2022-11-05T15:04:17.772Z,58.30
2022-11-05T15:07:04.883Z,68.10
2022-11-05T15:10:02.285Z,64.70
2022-11-05T15:12:48.866Z,47.63
2022-11-05T15:15:23.626Z,63.80
2022-11-05T15:18:12.247Z,55.25
2022-11-05T15:20:44.125Z,55.58
2022-11-05T15:23:15.527Z,55.38
2022-11-05T15:26:13.914Z,55.40
2022-11-05T15:28:47.922Z,59.78
2022-11-05T15:31:14.678Z,60.88
2022-11-05T15:33:43.211Z,63.42
2022-11-05T15:36:19.775Z,59.42
2022-11-05T15:39:08.258Z,56.60
2022-11-05T15:41:34.680Z,48.90
2022-11-05T15:44:02.755Z,56.55
2022-11-05T15:46:29.889Z,52.85
2022-11-05T15:49:14.654Z,57.38
2022-11-05T15:51:43.942Z,57.38
2022-11-05T15:54:36.060Z,54.30
2022-11-05T15:57:03.639Z,56.53
2022-11-05T15:59:30.893Z,49.58
2022-11-05T16:02:05.393Z,54.60
2022-11-05T16:04:34.777Z,51.28
2022-11-05T16:07:11.824Z,47.45
2022-11-05T16:09:43.589Z,55.35
2022-11-05T16:12:24.149Z,54.72
2022-11-05T16:15:29.471Z,54.60
2022-11-05T16:18:00.776Z,76.10
2022-11-05T16:20:33.391Z,60.83
2022-11-05T16:23:21.630Z,62.40
2022-11-05T16:25:48.602Z,65.10
2022-11-05T16:28:27.502Z,69.47
2022-11-05T16:30:54.151Z,67.47
2022-11-05T16:33:21.163Z,89.00
2022-11-05T16:35:51.299Z,88.63
2022-11-05T16:38:22.087Z,80.57
2022-11-05T16:40:48.779Z,81.00
2022-11-05T16:43:24.547Z,70.38
2022-11-05T16:45:57.151Z,68.18
2022-11-05T16:48:24.397Z,61.10
2022-11-05T16:50:51.571Z,57.03
2022-11-05T16:53:18.251Z,57.38
2022-11-05T16:55:46.210Z,66.13
2022-11-05T16:58:20.775Z,61.85
2022-11-05T17:00:52.573Z,62.20
2022-11-05T17:03:19.411Z,69.10
2022-11-05T17:05:46.543Z,73.13
2022-11-05T17:08:13.641Z,56.72
2022-11-05T17:10:40.697Z,54.30
2022-11-05T17:13:07.433Z,56.78
2022-11-05T17:15:37.334Z,55.42
2022-11-05T17:18:05.369Z,58.22
2022-11-05T17:20:40.781Z,59.10
2022-11-05T17:23:28.804Z,56.13
2022-11-05T17:26:06.647Z,72.45
2022-11-05T17:28:34.369Z,73.15
2022-11-05T17:31:02.839Z,72.13
2022-11-05T17:33:29.774Z,62.47
2022-11-05T17:35:56.954Z,71.63
2022-11-05T17:38:25.319Z,74.82
2022-11-05T17:40:52.931Z,73.43
2022-11-05T17:43:20.557Z,70.07
2022-11-05T17:45:49.904Z,71.72
2022-11-05T17:48:17.110Z,67.60
2022-11-05T17:50:46.105Z,66.40
2022-11-05T17:53:13.800Z,67.05
2022-11-05T17:55:45.874Z,69.18
2022-11-05T17:58:13.192Z,72.50
2022-11-05T18:00:41.647Z,79.97
2022-11-05T18:03:10.815Z,73.75
2022-11-05T18:05:38.253Z,74.30
2022-11-05T18:08:05.451Z,71.70
2022-11-05T18:10:33.065Z,75.53
2022-11-05T18:12:59.750Z,66.18
2022-11-05T18:15:26.461Z,61.38
2022-11-05T18:17:53.126Z,58.83
2022-11-05T18:20:19.969Z,68.55
2022-11-05T18:22:49.592Z,62.15
2022-11-05T18:25:16.623Z,60.00
2022-11-05T18:27:43.484Z,52.70
2022-11-05T18:30:13.937Z,45.45
2022-11-05T18:35:07.727Z,39.28
2022-11-05T18:37:34.468Z,35.10
2022-11-05T18:40:01.181Z,40.50
2022-11-05T18:42:27.858Z,39.78
2022-11-05T18:44:54.638Z,37.95
2022-11-05T18:47:21.309Z,34.88
2022-11-05T18:49:47.989Z,40.90
2022-11-05T18:52:14.911Z,35.85
2022-11-05T18:54:41.635Z,37.50
2022-11-05T18:57:08.609Z,31.77
2022-11-05T18:59:38.263Z,33.58
2022-11-05T19:02:07.441Z,31.70
2022-11-05T19:04:36.140Z,36.63
2022-11-05T19:07:05.571Z,37.25
2022-11-05T19:09:34.098Z,38.33
2022-11-05T19:12:01.214Z,33.13
2022-11-05T19:14:28.118Z,40.63
2022-11-05T19:16:54.827Z,42.55
2022-11-05T19:19:21.522Z,40.17
2022-11-05T19:21:48.242Z,42.72
2022-11-05T19:24:18.012Z,38.92
2022-11-05T19:26:45.016Z,44.28
2022-11-05T19:29:11.817Z,40.45
2022-11-05T19:31:38.989Z,42.22
2022-11-05T19:34:05.777Z,49.40
2022-11-05T19:36:33.826Z,45.03
2022-11-05T19:39:04.650Z,43.72
2022-11-05T19:41:31.331Z,45.28
2022-11-05T19:43:59.154Z,46.13
2022-11-05T19:46:26.106Z,41.88
2022-11-05T19:48:53.207Z,45.72
2022-11-05T19:51:23.401Z,41.15
2022-11-05T19:53:52.396Z,43.30
2022-11-05T19:56:23.544Z,48.60
2022-11-05T19:58:50.821Z,50.15
2022-11-05T20:01:18.904Z,41.30
2022-11-05T20:03:46.503Z,38.42
2022-11-05T20:06:16.259Z,46.97
2022-11-05T20:09:14.783Z,42.88
2022-11-05T20:11:31.192Z,40.80
2022-11-05T20:13:58.169Z,41.35
2022-11-05T20:16:32.247Z,38.58
2022-11-05T20:18:58.962Z,44.58
2022-11-05T20:21:26.666Z,40.10
2022-11-05T20:23:56.710Z,40.05
2022-11-05T20:26:23.466Z,38.58
2022-11-05T20:28:50.263Z,38.15
2022-11-05T20:31:18.442Z,41.53
2022-11-05T20:33:45.885Z,47.97
2022-11-05T20:36:16.420Z,40.45
2022-11-05T20:38:44.691Z,39.22
2022-11-05T20:41:14.517Z,35.42
2022-11-05T20:43:41.536Z,40.90
2022-11-05T20:46:09.394Z,38.47
2022-11-05T20:48:36.455Z,33.90
2022-11-05T20:51:08.940Z,34.88
2022-11-05T20:53:36.510Z,34.25
2022-11-05T20:56:07.808Z,43.17
2022-11-05T20:58:36.042Z,37.72
2022-11-05T21:01:04.088Z,34.97
2022-11-05T21:03:31.222Z,38.55
2022-11-05T21:06:00.687Z,38.58
2022-11-05T21:08:28.285Z,38.40
2022-11-05T21:10:56.379Z,41.70
2022-11-05T21:13:23.765Z,45.72
2022-11-05T21:15:53.673Z,37.70
2022-11-05T21:18:23.544Z,41.83
2022-11-05T21:20:50.772Z,38.10
2022-11-05T21:23:18.306Z,37.78
2022-11-05T21:25:45.820Z,37.97
2022-11-05T21:28:13.872Z,37.35
2022-11-05T21:30:44.946Z,35.70
2022-11-05T21:33:12.897Z,40.65
2022-11-05T21:35:45.055Z,39.53
2022-11-05T21:38:14.548Z,39.03
2022-11-05T21:40:41.734Z,33.25
2022-11-05T21:43:09.172Z,41.17
2022-11-05T21:45:41.137Z,38.95
2022-11-05T21:48:08.725Z,42.88
2022-11-05T21:50:57.005Z,42.85
2022-11-05T21:53:42.659Z,42.92
2022-11-05T21:56:40.576Z,54.15
2022-11-05T21:59:28.703Z,47.22
2022-11-05T22:02:01.357Z,52.25
2022-11-05T22:04:35.492Z,54.50
2022-11-05T22:07:03.989Z,54.65
2022-11-05T22:09:31.254Z,47.88
2022-11-05T22:11:58.048Z,47.67
2022-11-05T22:14:25.032Z,55.35
2022-11-05T22:16:52.108Z,43.22
2022-11-05T22:19:21.002Z,41.70
2022-11-05T22:21:48.071Z,40.30
2022-11-05T22:24:15.139Z,42.47
2022-11-05T22:26:42.914Z,38.47
2022-11-05T22:29:10.127Z,37.13
2022-11-05T22:31:37.017Z,39.75
2022-11-05T22:34:05.270Z,40.35
2022-11-05T22:36:35.495Z,39.20
2022-11-05T22:39:03.023Z,38.40
2022-11-05T22:41:29.868Z,40.53
2022-11-05T22:43:57.376Z,42.25
2022-11-05T22:46:26.660Z,41.60
2022-11-05T22:48:54.054Z,35.88
2022-11-05T22:51:23.661Z,40.20
2022-11-05T22:53:51.056Z,38.65
2022-11-05T22:56:20.607Z,42.45
2022-11-05T22:58:48.134Z,40.57
2022-11-05T23:01:16.016Z,39.35
2022-11-05T23:03:45.061Z,48.42
2022-11-05T23:06:37.543Z,43.10
2022-11-05T23:09:33.318Z,41.20
2022-11-05T23:12:00.834Z,43.20
2022-11-05T23:14:27.923Z,47.00
2022-11-05T23:17:13.149Z,48.72
2022-11-05T23:20:18.880Z,45.38
2022-11-05T23:23:04.402Z,39.95
2022-11-05T23:25:31.206Z,48.85
2022-11-05T23:27:57.914Z,39.13
2022-11-05T23:30:26.710Z,40.78
2022-11-05T23:32:53.685Z,46.13
2022-11-05T23:35:43.227Z,38.47
2022-11-05T23:38:28.851Z,42.58
2022-11-05T23:41:21.631Z,40.28
2022-11-05T23:44:07.122Z,43.13
2022-11-05T23:46:52.569Z,40.00
2022-11-05T23:49:19.436Z,44.60
2022-11-05T23:51:46.584Z,45.55
2022-11-05T23:54:13.480Z,42.63
2022-11-05T23:56:40.274Z,43.33
2022-11-05T23:59:07.402Z,42.63
